PWSweather.com
Personal Weather Stations
Station Observations
01979
Ravne Pri CerknemSI 5282

Ravne Pri CerknemSI 5282

Lat: 46.1213916, Lon: 13.952774299999987

Elevation: 2244.094488

Station Type: Techo Line WS2307

www.vremenska.postaja.andre.si/

High Low Average
Temperature 41.5°F5.3°C 31.6°F-0.2°C 34.9°F1.6°C
Dew Point 32.4°F0.2°C 23.0°F-5.0°C 28.5°F-1.9°C
Winds 11.8 mph 19.0 kmh Calm Calm 3.0 mph SSW4.8 kmh SSW
Wind Gusts 17.2 mph27.7 kmh -- 7.0 mph11.3 kmh
Humidity 91% 62% 77%
Pressure 30.36 in1028.1 mb 30.05 in1017.6 mb -
Precipitation 0.00 in0.0 mm - -
Hour Temp Dew Point Humidity Winds Wind Gusts Pressure Precip Precip Rate Daily Precip Total
12:00 AM 36.5°F2.5°C 32.4°F0.2°C 85% 6.1 mph S9.8 kmh S 9.4 mph15.1 kmh 30.05 in1017.6 mb 0.00 in0.0 mm 0.00 in0.0 mm 0.00 in0.0 mm
12:10 AM 37.2°F2.9°C 31.9°F-0.1°C 81% 4.9 mph SE7.9 kmh SE 7.6 mph12.2 kmh 30.06 in1017.9 mb 0.00 in0.0 mm 0.00 in0.0 mm 0.00 in0.0 mm
12:20 AM 37.2°F2.9°C 31.6°F-0.2°C 80% 6.0 mph SE9.7 kmh SE 8.7 mph14.0 kmh 30.07 in1018.3 mb 0.00 in0.0 mm 0.00 in0.0 mm 0.00 in0.0 mm
12:30 AM 36.7°F2.6°C 31.1°F-0.5°C 80% 6.9 mph S11.1 kmh S 8.7 mph14.0 kmh 30.07 in1018.3 mb 0.00 in0.0 mm 0.00 in0.0 mm 0.00 in0.0 mm
12:40 AM 35.6°F2.0°C 30.6°F-0.8°C 82% 6.9 mph S11.1 kmh S 13.6 mph21.9 kmh 30.08 in1018.6 mb 0.00 in0.0 mm 0.00 in0.0 mm 0.00 in0.0 mm
12:50 AM 35.4°F1.9°C 30.5°F-0.8°C 82% 6.1 mph S9.8 kmh S 13.6 mph21.9 kmh 30.08 in1018.6 mb 0.00 in0.0 mm 0.00 in0.0 mm 0.00 in0.0 mm
01:00 AM 35.2°F1.8°C 30.6°F-0.8°C 83% 5.5 mph E8.9 kmh E 8.9 mph14.3 kmh 30.09 in1019.0 mb 0.00 in0.0 mm 0.00 in0.0 mm 0.00 in0.0 mm
01:10 AM 34.5°F1.4°C 30.2°F-1.0°C 84% 4.0 mph E6.4 kmh E 8.9 mph14.3 kmh 30.09 in1019.0 mb 0.00 in0.0 mm 0.00 in0.0 mm 0.00 in0.0 mm
01:20 AM 34.3°F1.3°C 30.3°F-0.9°C 85% 5.9 mph SSE9.5 kmh SSE 8.1 mph13.0 kmh 30.11 in1019.6 mb 0.00 in0.0 mm 0.00 in0.0 mm 0.00 in0.0 mm
01:30 AM 34.0°F1.1°C 30.5°F-0.8°C 87% 4.9 mph SSE7.9 kmh SSE 8.3 mph13.4 kmh 30.11 in1019.6 mb 0.00 in0.0 mm 0.00 in0.0 mm 0.00 in0.0 mm
01:40 AM 33.6°F0.9°C 30.4°F-0.9°C 88% 6.1 mph SSE9.8 kmh SSE 7.8 mph12.6 kmh 30.12 in1020.0 mb 0.00 in0.0 mm 0.00 in0.0 mm 0.00 in0.0 mm
01:50 AM 33.4°F0.8°C 30.5°F-0.8°C 89% 4.2 mph S6.8 kmh S 6.0 mph9.7 kmh 30.11 in1019.6 mb 0.00 in0.0 mm 0.00 in0.0 mm 0.00 in0.0 mm
02:00 AM 33.4°F0.8°C 30.8°F-0.7°C 90% 6.0 mph S9.7 kmh S 7.6 mph12.2 kmh 30.13 in1020.3 mb 0.00 in0.0 mm 0.00 in0.0 mm 0.00 in0.0 mm
02:01 AM 33.6°F0.9°C 30.4°F-0.9°C 88% 6.0 mph S9.7 kmh S 7.4 mph11.9 kmh 30.11 in1019.6 mb 0.00 in0.0 mm 0.00 in0.0 mm 0.00 in0.0 mm
02:10 AM 33.4°F0.8°C 30.8°F-0.7°C 90% 2.4 mph SSE3.9 kmh SSE 6.7 mph10.8 kmh 30.14 in1020.7 mb 0.00 in0.0 mm 0.00 in0.0 mm 0.00 in0.0 mm
02:20 AM 33.4°F0.8°C 30.8°F-0.7°C 90% Calm Calm -- 30.14 in1020.7 mb 0.00 in0.0 mm 0.00 in0.0 mm 0.00 in0.0 mm
02:30 AM 33.3°F0.7°C 30.6°F-0.8°C 90% Calm Calm -- 30.14 in1020.7 mb 0.00 in0.0 mm 0.00 in0.0 mm 0.00 in0.0 mm
02:40 AM 33.1°F0.6°C 30.5°F-0.8°C 90% 3.5 mph SE5.6 kmh SE 5.4 mph8.7 kmh 30.15 in1021.0 mb 0.00 in0.0 mm 0.00 in0.0 mm 0.00 in0.0 mm
02:50 AM 32.9°F0.5°C 30.3°F-0.9°C 90% 6.1 mph SSE9.8 kmh SSE 8.3 mph13.4 kmh 30.14 in1020.7 mb 0.00 in0.0 mm 0.00 in0.0 mm 0.00 in0.0 mm
03:00 AM 32.9°F0.5°C 30.6°F-0.8°C 91% 6.5 mph SSE10.5 kmh SSE 9.4 mph15.1 kmh 30.15 in1021.0 mb 0.00 in0.0 mm 0.00 in0.0 mm 0.00 in0.0 mm
03:02 AM 33.1°F0.6°C 30.5°F-0.8°C 90% 6.0 mph SSE9.7 kmh SSE 9.4 mph15.1 kmh 30.15 in1021.0 mb 0.00 in0.0 mm 0.00 in0.0 mm 0.00 in0.0 mm
03:10 AM 33.3°F0.7°C 30.9°F-0.6°C 91% 7.0 mph S11.3 kmh S 9.4 mph15.1 kmh 30.15 in1021.0 mb 0.00 in0.0 mm 0.00 in0.0 mm 0.00 in0.0 mm
03:20 AM 33.4°F0.8°C 30.5°F-0.8°C 89% 5.2 mph SE8.4 kmh SE 6.0 mph9.7 kmh 30.15 in1021.0 mb 0.00 in0.0 mm 0.00 in0.0 mm 0.00 in0.0 mm
03:30 AM 33.1°F0.6°C 30.2°F-1.0°C 89% 5.7 mph S9.2 kmh S 8.1 mph13.0 kmh 30.15 in1021.0 mb 0.00 in0.0 mm 0.00 in0.0 mm 0.00 in0.0 mm
03:40 AM 33.1°F0.6°C 30.2°F-1.0°C 89% 3.6 mph SSE5.8 kmh SSE 4.9 mph7.9 kmh 30.16 in1021.3 mb 0.00 in0.0 mm 0.00 in0.0 mm 0.00 in0.0 mm
03:50 AM 33.6°F0.9°C 30.2°F-1.0°C 87% 2.5 mph SSE4.0 kmh SSE 4.9 mph7.9 kmh 30.15 in1021.0 mb 0.00 in0.0 mm 0.00 in0.0 mm 0.00 in0.0 mm
04:00 AM 34.2°F1.2°C 29.8°F-1.2°C 84% 5.0 mph S8.0 kmh S 11.9 mph19.2 kmh 30.16 in1021.3 mb 0.00 in0.0 mm 0.00 in0.0 mm 0.00 in0.0 mm
04:10 AM 34.0°F1.1°C 29.4°F-1.4°C 83% 2.5 mph SE4.0 kmh SE 4.0 mph6.4 kmh 30.16 in1021.3 mb 0.00 in0.0 mm 0.00 in0.0 mm 0.00 in0.0 mm
04:20 AM 33.6°F0.9°C 29.0°F-1.7°C 83% 4.8 mph S7.7 kmh S 8.5 mph13.7 kmh 30.16 in1021.3 mb 0.00 in0.0 mm 0.00 in0.0 mm 0.00 in0.0 mm
04:30 AM 33.6°F0.9°C 28.7°F-1.8°C 82% 8.9 mph S14.3 kmh S 10.3 mph16.6 kmh 30.17 in1021.7 mb 0.00 in0.0 mm 0.00 in0.0 mm 0.00 in0.0 mm
04:40 AM 34.2°F1.2°C 28.9°F-1.7°C 81% 6.4 mph SE10.3 kmh SE 8.7 mph14.0 kmh 30.17 in1021.7 mb 0.00 in0.0 mm 0.00 in0.0 mm 0.00 in0.0 mm
04:50 AM 34.3°F1.3°C 28.5°F-1.9°C 79% 8.4 mph SSE13.5 kmh SSE 17.2 mph27.7 kmh 30.17 in1021.7 mb 0.00 in0.0 mm 0.00 in0.0 mm 0.00 in0.0 mm
05:00 AM 34.3°F1.3°C 27.2°F-2.7°C 75% 7.2 mph SE11.6 kmh SE 11.6 mph18.7 kmh 30.17 in1021.7 mb 0.00 in0.0 mm 0.00 in0.0 mm 0.00 in0.0 mm
05:10 AM 34.5°F1.4°C 26.8°F-2.9°C 73% 3.8 mph ESE6.1 kmh ESE 10.1 mph16.3 kmh 30.18 in1022.0 mb 0.00 in0.0 mm 0.00 in0.0 mm 0.00 in0.0 mm
05:20 AM 34.2°F1.2°C 26.7°F-2.9°C 74% 5.4 mph SE8.7 kmh SE 7.2 mph11.6 kmh 30.17 in1021.7 mb 0.00 in0.0 mm 0.00 in0.0 mm 0.00 in0.0 mm
05:30 AM 34.9°F1.6°C 25.0°F-3.9°C 67% 11.8 mph E19.0 kmh E 15.2 mph24.5 kmh 30.17 in1021.7 mb 0.00 in0.0 mm 0.00 in0.0 mm 0.00 in0.0 mm
05:40 AM 34.3°F1.3°C 24.9°F-3.9°C 68% 6.1 mph ESE9.8 kmh ESE 11.2 mph18.0 kmh 30.18 in1022.0 mb 0.00 in0.0 mm 0.00 in0.0 mm 0.00 in0.0 mm
05:50 AM 34.0°F1.1°C 25.6°F-3.6°C 71% 4.0 mph SSE6.4 kmh SSE 8.1 mph13.0 kmh 30.19 in1022.4 mb 0.00 in0.0 mm 0.00 in0.0 mm 0.00 in0.0 mm
06:00 AM 34.2°F1.2°C 25.0°F-3.9°C 69% 2.9 mph SE4.7 kmh SE 4.7 mph7.6 kmh 30.19 in1022.4 mb 0.00 in0.0 mm 0.00 in0.0 mm 0.00 in0.0 mm
06:10 AM 33.6°F0.9°C 24.9°F-3.9°C 70% 0.6 mph E1.0 kmh E 5.1 mph8.2 kmh 30.20 in1022.7 mb 0.00 in0.0 mm 0.00 in0.0 mm 0.00 in0.0 mm
06:20 AM 34.3°F1.3°C 24.9°F-3.9°C 66% 2.9 mph SE4.7 kmh SE 5.4 mph8.7 kmh 30.20 in1022.7 mb 0.00 in0.0 mm 0.00 in0.0 mm 0.00 in0.0 mm
06:30 AM 34.3°F1.3°C 24.2°F-4.3°C 66% 6.7 mph E10.8 kmh E 10.1 mph16.3 kmh 30.21 in1023.0 mb 0.00 in0.0 mm 0.00 in0.0 mm 0.00 in0.0 mm
06:40 AM 34.3°F1.3°C 24.2°F-4.3°C 66% 5.9 mph E9.5 kmh E 12.3 mph19.8 kmh 30.21 in1023.0 mb 0.00 in0.0 mm 0.00 in0.0 mm 0.00 in0.0 mm
06:50 AM 34.0°F1.1°C 23.8°F-4.6°C 66% 1.4 mph ESE2.3 kmh ESE 6.7 mph10.8 kmh 30.22 in1023.4 mb 0.00 in0.0 mm 0.00 in0.0 mm 0.00 in0.0 mm
07:00 AM 34.3°F1.3°C 23.0°F-5.0°C 63% 4.1 mph SSE6.6 kmh SSE 8.5 mph13.7 kmh 30.23 in1023.7 mb 0.00 in0.0 mm 0.00 in0.0 mm 0.00 in0.0 mm
07:10 AM 33.6°F0.9°C 23.5°F-4.7°C 66% 0.6 mph S1.0 kmh S 4.9 mph7.9 kmh 30.24 in1024.0 mb 0.00 in0.0 mm 0.00 in0.0 mm 0.00 in0.0 mm
07:20 AM 33.1°F0.6°C 24.0°F-4.4°C 69% 1.2 mph SE1.9 kmh SE 4.9 mph7.9 kmh 30.24 in1024.0 mb 0.00 in0.0 mm 0.00 in0.0 mm 0.00 in0.0 mm
07:30 AM 32.7°F0.4°C 24.0°F-4.4°C 70% Calm Calm -- 30.25 in1024.4 mb 0.00 in0.0 mm 0.00 in0.0 mm 0.00 in0.0 mm
07:40 AM 32.7°F0.4°C 25.3°F-3.7°C 74% 1.2 mph NE1.9 kmh NE 7.4 mph11.9 kmh 30.25 in1024.4 mb 0.00 in0.0 mm 0.00 in0.0 mm 0.00 in0.0 mm
07:50 AM 32.9°F0.5°C 24.9°F-3.9°C 73% 3.9 mph ENE6.3 kmh ENE 7.4 mph11.9 kmh 30.27 in1025.1 mb 0.00 in0.0 mm 0.00 in0.0 mm 0.00 in0.0 mm
08:00 AM 32.7°F0.4°C 25.7°F-3.5°C 75% 0.8 mph SW1.3 kmh SW 6.7 mph10.8 kmh 30.27 in1025.1 mb 0.00 in0.0 mm 0.00 in0.0 mm 0.00 in0.0 mm
08:10 AM 32.4°F0.2°C 27.2°F-2.7°C 81% 1.6 mph SW2.6 kmh SW 6.7 mph10.8 kmh 30.28 in1025.4 mb 0.00 in0.0 mm 0.00 in0.0 mm 0.00 in0.0 mm
08:20 AM 32.2°F0.1°C 27.3°F-2.6°C 82% 5.1 mph W8.2 kmh W 6.7 mph10.8 kmh 30.29 in1025.7 mb 0.00 in0.0 mm 0.00 in0.0 mm 0.00 in0.0 mm
08:30 AM 32.2°F0.1°C 27.6°F-2.4°C 83% 2.5 mph NNW4.0 kmh NNW 6.7 mph10.8 kmh 30.30 in1026.1 mb 0.00 in0.0 mm 0.00 in0.0 mm 0.00 in0.0 mm
08:40 AM 32.4°F0.2°C 28.4°F-2.0°C 85% 3.7 mph NW6.0 kmh NW 7.2 mph11.6 kmh 30.30 in1026.1 mb 0.00 in0.0 mm 0.00 in0.0 mm 0.00 in0.0 mm
08:50 AM 32.5°F0.3°C 28.5°F-1.9°C 85% 1.4 mph NW2.3 kmh NW 4.3 mph6.9 kmh 30.31 in1026.4 mb 0.00 in0.0 mm 0.00 in0.0 mm 0.00 in0.0 mm
09:00 AM 32.7°F0.4°C 28.7°F-1.8°C 85% 4.1 mph NNW6.6 kmh NNW 6.0 mph9.7 kmh 30.31 in1026.4 mb 0.00 in0.0 mm 0.00 in0.0 mm 0.00 in0.0 mm
09:10 AM 32.9°F0.5°C 28.6°F-1.9°C 84% 2.5 mph NNW4.0 kmh NNW 7.6 mph12.2 kmh 30.32 in1026.8 mb 0.00 in0.0 mm 0.00 in0.0 mm 0.00 in0.0 mm
09:20 AM 33.6°F0.9°C 29.3°F-1.5°C 84% 5.3 mph NW8.5 kmh NW 7.8 mph12.6 kmh 30.32 in1026.8 mb 0.00 in0.0 mm 0.00 in0.0 mm 0.00 in0.0 mm
09:30 AM 34.0°F1.1°C 29.4°F-1.4°C 83% 5.4 mph NNW8.7 kmh NNW 5.4 mph8.7 kmh 30.33 in1027.1 mb 0.00 in0.0 mm 0.00 in0.0 mm 0.00 in0.0 mm
09:40 AM 33.8°F1.0°C 28.9°F-1.7°C 82% 4.7 mph NW7.6 kmh NW 6.5 mph10.5 kmh 30.33 in1027.1 mb 0.00 in0.0 mm 0.00 in0.0 mm 0.00 in0.0 mm
09:50 AM 35.4°F1.9°C 30.2°F-1.0°C 80% 2.7 mph NNW4.3 kmh NNW 6.5 mph10.5 kmh 30.34 in1027.4 mb 0.00 in0.0 mm 0.00 in0.0 mm 0.00 in0.0 mm
10:00 AM 36.3°F2.4°C 29.8°F-1.2°C 77% 2.7 mph SW4.3 kmh SW 4.9 mph7.9 kmh 30.34 in1027.4 mb 0.00 in0.0 mm 0.00 in0.0 mm 0.00 in0.0 mm
10:10 AM 36.3°F2.4°C 29.8°F-1.2°C 77% 3.0 mph SSW4.8 kmh SSW 5.1 mph8.2 kmh 30.34 in1027.4 mb 0.00 in0.0 mm 0.00 in0.0 mm 0.00 in0.0 mm
10:20 AM 36.5°F2.5°C 29.7°F-1.3°C 76% 2.2 mph SW3.5 kmh SW 4.5 mph7.2 kmh 30.34 in1027.4 mb 0.00 in0.0 mm 0.00 in0.0 mm 0.00 in0.0 mm
10:30 AM 37.2°F2.9°C 30.0°F-1.1°C 75% Calm Calm -- 30.34 in1027.4 mb 0.00 in0.0 mm 0.00 in0.0 mm 0.00 in0.0 mm
10:40 AM 37.2°F2.9°C 30.0°F-1.1°C 75% 1.7 mph NW2.7 kmh NW 6.7 mph10.8 kmh 30.34 in1027.4 mb 0.00 in0.0 mm 0.00 in0.0 mm 0.00 in0.0 mm
10:50 AM 37.6°F3.1°C 30.0°F-1.1°C 74% 4.0 mph S6.4 kmh S 6.5 mph10.5 kmh 30.35 in1027.8 mb 0.00 in0.0 mm 0.00 in0.0 mm 0.00 in0.0 mm
11:00 AM 37.9°F3.3°C 30.7°F-0.7°C 75% 1.4 mph WSW2.3 kmh WSW 5.1 mph8.2 kmh 30.35 in1027.8 mb 0.00 in0.0 mm 0.00 in0.0 mm 0.00 in0.0 mm
11:10 AM 37.6°F3.1°C 29.7°F-1.3°C 73% 3.2 mph NW5.1 kmh NW 5.6 mph9.0 kmh 30.35 in1027.8 mb 0.00 in0.0 mm 0.00 in0.0 mm 0.00 in0.0 mm
11:20 AM 37.6°F3.1°C 29.7°F-1.3°C 74% 3.5 mph NW5.6 kmh NW 6.9 mph11.1 kmh 30.34 in1027.4 mb 0.00 in0.0 mm 0.00 in0.0 mm 0.00 in0.0 mm
11:30 AM 38.3°F3.5°C 30.1°F-1.1°C 72% 1.8 mph SE2.9 kmh SE 3.6 mph5.8 kmh 30.34 in1027.4 mb 0.00 in0.0 mm 0.00 in0.0 mm 0.00 in0.0 mm
11:40 AM 38.3°F3.5°C 30.1°F-1.1°C 72% 4.8 mph NNW7.7 kmh NNW 8.5 mph13.7 kmh 30.34 in1027.4 mb 0.00 in0.0 mm 0.00 in0.0 mm 0.00 in0.0 mm
11:50 AM 38.3°F3.5°C 30.1°F-1.1°C 72% 7.2 mph NE11.6 kmh NE 8.5 mph13.7 kmh 30.34 in1027.4 mb 0.00 in0.0 mm 0.00 in0.0 mm 0.00 in0.0 mm
12:00 PM 38.5°F3.6°C 29.9°F-1.2°C 71% 3.2 mph N5.1 kmh N 6.3 mph10.1 kmh 30.32 in1026.8 mb 0.00 in0.0 mm 0.00 in0.0 mm 0.00 in0.0 mm
12:10 PM 39.6°F4.2°C 29.9°F-1.2°C 68% 1.4 mph W2.3 kmh W 4.7 mph7.6 kmh 30.32 in1026.8 mb 0.00 in0.0 mm 0.00 in0.0 mm 0.00 in0.0 mm
12:20 PM 39.7°F4.3°C 29.7°F-1.3°C 67% 2.0 mph SW3.2 kmh SW 9.2 mph14.8 kmh 30.33 in1027.1 mb 0.00 in0.0 mm 0.00 in0.0 mm 0.00 in0.0 mm
12:30 PM 39.7°F4.3°C 28.9°F-1.7°C 65% 3.9 mph SW6.3 kmh SW 7.4 mph11.9 kmh 30.33 in1027.1 mb 0.00 in0.0 mm 0.00 in0.0 mm 0.00 in0.0 mm
12:40 PM 39.7°F4.3°C 29.3°F-1.5°C 66% 2.1 mph W3.4 kmh W 7.4 mph11.9 kmh 30.32 in1026.8 mb 0.00 in0.0 mm 0.00 in0.0 mm 0.00 in0.0 mm
12:50 PM 39.9°F4.4°C 29.8°F-1.2°C 67% 2.7 mph NW4.3 kmh NW 6.7 mph10.8 kmh 30.32 in1026.8 mb 0.00 in0.0 mm 0.00 in0.0 mm 0.00 in0.0 mm
01:00 PM 40.3°F4.6°C 30.2°F-1.0°C 67% 2.4 mph NW3.9 kmh NW 6.7 mph10.8 kmh 30.32 in1026.8 mb 0.00 in0.0 mm 0.00 in0.0 mm 0.00 in0.0 mm
01:10 PM 40.3°F4.6°C 29.4°F-1.4°C 65% 0.6 mph NW1.0 kmh NW 6.7 mph10.8 kmh 30.32 in1026.8 mb 0.00 in0.0 mm 0.00 in0.0 mm 0.00 in0.0 mm
01:20 PM 40.8°F4.9°C 30.7°F-0.7°C 67% 2.3 mph SW3.7 kmh SW 6.7 mph10.8 kmh 30.32 in1026.8 mb 0.00 in0.0 mm 0.00 in0.0 mm 0.00 in0.0 mm
01:30 PM 40.6°F4.8°C 30.2°F-1.0°C 66% 1.5 mph SW2.4 kmh SW 7.4 mph11.9 kmh 30.32 in1026.8 mb 0.00 in0.0 mm 0.00 in0.0 mm 0.00 in0.0 mm
01:40 PM 40.3°F4.6°C 30.2°F-1.0°C 67% 1.8 mph NNW2.9 kmh NNW 4.9 mph7.9 kmh 30.31 in1026.4 mb 0.00 in0.0 mm 0.00 in0.0 mm 0.00 in0.0 mm
01:50 PM 41.5°F5.3°C 30.6°F-0.8°C 65% 3.5 mph WNW5.6 kmh WNW 5.6 mph9.0 kmh 30.30 in1026.1 mb 0.00 in0.0 mm 0.00 in0.0 mm 0.00 in0.0 mm
02:00 PM 40.8°F4.9°C 30.0°F-1.1°C 65% 3.3 mph W5.3 kmh W 6.0 mph9.7 kmh 30.30 in1026.1 mb 0.00 in0.0 mm 0.00 in0.0 mm 0.00 in0.0 mm
02:10 PM 40.8°F4.9°C 29.6°F-1.3°C 64% 2.1 mph S3.4 kmh S 6.5 mph10.5 kmh 30.31 in1026.4 mb 0.00 in0.0 mm 0.00 in0.0 mm 0.00 in0.0 mm
02:20 PM 40.5°F4.7°C 28.8°F-1.8°C 63% 3.8 mph NW6.1 kmh NW 8.1 mph13.0 kmh 30.30 in1026.1 mb 0.00 in0.0 mm 0.00 in0.0 mm 0.00 in0.0 mm
02:30 PM 40.1°F4.5°C 28.9°F-1.7°C 64% 5.4 mph ENE8.7 kmh ENE 13.2 mph21.2 kmh 30.30 in1026.1 mb 0.00 in0.0 mm 0.00 in0.0 mm 0.00 in0.0 mm
02:40 PM 40.1°F4.5°C 28.5°F-1.9°C 63% 1.3 mph ENE2.1 kmh ENE 6.3 mph10.1 kmh 30.30 in1026.1 mb 0.00 in0.0 mm 0.00 in0.0 mm 0.00 in0.0 mm
02:50 PM 40.6°F4.8°C 28.6°F-1.9°C 62% 0.6 mph WNW1.0 kmh WNW 4.9 mph7.9 kmh 30.30 in1026.1 mb 0.00 in0.0 mm 0.00 in0.0 mm 0.00 in0.0 mm
03:00 PM 40.3°F4.6°C 29.1°F-1.6°C 64% 4.3 mph WNW6.9 kmh WNW 7.2 mph11.6 kmh 30.30 in1026.1 mb 0.00 in0.0 mm 0.00 in0.0 mm 0.00 in0.0 mm
03:10 PM 39.4°F4.1°C 29.0°F-1.7°C 66% 3.0 mph N4.8 kmh N 7.8 mph12.6 kmh 30.31 in1026.4 mb 0.00 in0.0 mm 0.00 in0.0 mm 0.00 in0.0 mm
03:20 PM 39.0°F3.9°C 29.3°F-1.5°C 68% 7.2 mph NNW11.6 kmh NNW 10.1 mph16.3 kmh 30.31 in1026.4 mb 0.00 in0.0 mm 0.00 in0.0 mm 0.00 in0.0 mm
03:30 PM 38.8°F3.8°C 29.5°F-1.4°C 69% 4.7 mph NNW7.6 kmh NNW 6.9 mph11.1 kmh 30.31 in1026.4 mb 0.00 in0.0 mm 0.00 in0.0 mm 0.00 in0.0 mm
03:40 PM 38.5°F3.6°C 29.5°F-1.4°C 70% 6.4 mph NW10.3 kmh NW 7.4 mph11.9 kmh 30.31 in1026.4 mb 0.00 in0.0 mm 0.00 in0.0 mm 0.00 in0.0 mm
03:50 PM 37.6°F3.1°C 28.7°F-1.8°C 70% 5.4 mph NW8.7 kmh NW 7.4 mph11.9 kmh 30.32 in1026.8 mb 0.00 in0.0 mm 0.00 in0.0 mm 0.00 in0.0 mm
04:00 PM 37.6°F3.1°C 29.0°F-1.7°C 71% 0.8 mph NNW1.3 kmh NNW 4.5 mph7.2 kmh 30.31 in1026.4 mb 0.00 in0.0 mm 0.00 in0.0 mm 0.00 in0.0 mm
04:10 PM 37.4°F3.0°C 28.9°F-1.7°C 71% 0.1 mph NNW0.2 kmh NNW 4.5 mph7.2 kmh 30.32 in1026.8 mb 0.00 in0.0 mm 0.00 in0.0 mm 0.00 in0.0 mm
04:20 PM 37.0°F2.8°C 28.5°F-1.9°C 71% 2.3 mph NE3.7 kmh NE 4.5 mph7.2 kmh 30.32 in1026.8 mb 0.00 in0.0 mm 0.00 in0.0 mm 0.00 in0.0 mm
04:30 PM 36.7°F2.6°C 28.2°F-2.1°C 71% 1.0 mph N1.6 kmh N 4.9 mph7.9 kmh 30.32 in1026.8 mb 0.00 in0.0 mm 0.00 in0.0 mm 0.00 in0.0 mm
04:40 PM 36.3°F2.4°C 28.2°F-2.1°C 72% Calm Calm -- 30.32 in1026.8 mb 0.00 in0.0 mm 0.00 in0.0 mm 0.00 in0.0 mm
04:50 PM 36.0°F2.2°C 27.8°F-2.3°C 72% 0.5 mph NNW0.8 kmh NNW 2.5 mph4.0 kmh 30.33 in1027.1 mb 0.00 in0.0 mm 0.00 in0.0 mm 0.00 in0.0 mm
05:00 PM 35.4°F1.9°C 27.6°F-2.4°C 73% 2.4 mph NW3.9 kmh NW 7.6 mph12.2 kmh 30.32 in1026.8 mb 0.00 in0.0 mm 0.00 in0.0 mm 0.00 in0.0 mm
05:10 PM 34.5°F1.4°C 27.4°F-2.6°C 75% 3.2 mph NW5.1 kmh NW 6.7 mph10.8 kmh 30.33 in1027.1 mb 0.00 in0.0 mm 0.00 in0.0 mm 0.00 in0.0 mm
05:20 PM 34.3°F1.3°C 27.6°F-2.4°C 76% 1.4 mph N2.3 kmh N 5.1 mph8.2 kmh 30.33 in1027.1 mb 0.00 in0.0 mm 0.00 in0.0 mm 0.00 in0.0 mm
05:30 PM 34.0°F1.1°C 27.5°F-2.5°C 77% Calm Calm -- 30.34 in1027.4 mb 0.00 in0.0 mm 0.00 in0.0 mm 0.00 in0.0 mm
05:40 PM 33.4°F0.8°C 27.6°F-2.4°C 79% 0.6 mph NW1.0 kmh NW 5.1 mph8.2 kmh 30.34 in1027.4 mb 0.00 in0.0 mm 0.00 in0.0 mm 0.00 in0.0 mm
05:50 PM 33.3°F0.7°C 27.8°F-2.3°C 80% 3.2 mph NW5.1 kmh NW 5.1 mph8.2 kmh 30.34 in1027.4 mb 0.00 in0.0 mm 0.00 in0.0 mm 0.00 in0.0 mm
06:00 PM 33.1°F0.6°C 27.9°F-2.3°C 81% 1.2 mph NNE1.9 kmh NNE 3.6 mph5.8 kmh 30.35 in1027.8 mb 0.00 in0.0 mm 0.00 in0.0 mm 0.00 in0.0 mm
06:10 PM 32.7°F0.4°C 27.5°F-2.5°C 81% 0.2 mph SSE0.3 kmh SSE 1.3 mph2.1 kmh 30.35 in1027.8 mb 0.00 in0.0 mm 0.00 in0.0 mm 0.00 in0.0 mm
06:20 PM 32.7°F0.4°C 27.8°F-2.3°C 82% 0.9 mph W1.4 kmh W 3.1 mph5.0 kmh 30.35 in1027.8 mb 0.00 in0.0 mm 0.00 in0.0 mm 0.00 in0.0 mm
06:30 PM 32.7°F0.4°C 28.1°F-2.2°C 83% 3.3 mph WNW5.3 kmh WNW 4.7 mph7.6 kmh 30.36 in1028.1 mb 0.00 in0.0 mm 0.00 in0.0 mm 0.00 in0.0 mm
06:40 PM 32.9°F0.5°C 28.3°F-2.1°C 83% 2.2 mph NW3.5 kmh NW 5.8 mph9.3 kmh 30.36 in1028.1 mb 0.00 in0.0 mm 0.00 in0.0 mm 0.00 in0.0 mm
06:50 PM 33.1°F0.6°C 28.2°F-2.1°C 82% 1.6 mph NE2.6 kmh NE 4.7 mph7.6 kmh 30.35 in1027.8 mb 0.00 in0.0 mm 0.00 in0.0 mm 0.00 in0.0 mm
07:00 PM 33.1°F0.6°C 28.2°F-2.1°C 82% 0.7 mph E1.1 kmh E 4.5 mph7.2 kmh 30.35 in1027.8 mb 0.00 in0.0 mm 0.00 in0.0 mm 0.00 in0.0 mm
07:10 PM 33.1°F0.6°C 28.5°F-1.9°C 83% 2.4 mph N3.9 kmh N 5.4 mph8.7 kmh 30.36 in1028.1 mb 0.00 in0.0 mm 0.00 in0.0 mm 0.00 in0.0 mm
07:20 PM 32.9°F0.5°C 28.3°F-2.1°C 83% 2.7 mph W4.3 kmh W 6.5 mph10.5 kmh 30.36 in1028.1 mb 0.00 in0.0 mm 0.00 in0.0 mm 0.00 in0.0 mm
07:30 PM 32.9°F0.5°C 28.3°F-2.1°C 83% 3.0 mph NW4.8 kmh NW 6.3 mph10.1 kmh 30.36 in1028.1 mb 0.00 in0.0 mm 0.00 in0.0 mm 0.00 in0.0 mm
07:40 PM 32.9°F0.5°C 28.3°F-2.1°C 83% 3.3 mph NW5.3 kmh NW 7.2 mph11.6 kmh 30.36 in1028.1 mb 0.00 in0.0 mm 0.00 in0.0 mm 0.00 in0.0 mm
07:50 PM 32.9°F0.5°C 28.3°F-2.1°C 83% 2.0 mph NE3.2 kmh NE 7.2 mph11.6 kmh 30.36 in1028.1 mb 0.00 in0.0 mm 0.00 in0.0 mm 0.00 in0.0 mm
08:00 PM 32.9°F0.5°C 28.3°F-2.1°C 83% 3.3 mph ENE5.3 kmh ENE 6.3 mph10.1 kmh 30.35 in1027.8 mb 0.00 in0.0 mm 0.00 in0.0 mm 0.00 in0.0 mm
08:10 PM 32.7°F0.4°C 28.1°F-2.2°C 83% 2.9 mph NE4.7 kmh NE 6.3 mph10.1 kmh 30.35 in1027.8 mb 0.00 in0.0 mm 0.00 in0.0 mm 0.00 in0.0 mm
08:20 PM 32.7°F0.4°C 27.8°F-2.3°C 82% 3.2 mph NE5.1 kmh NE 7.4 mph11.9 kmh 30.36 in1028.1 mb 0.00 in0.0 mm 0.00 in0.0 mm 0.00 in0.0 mm
08:30 PM 32.7°F0.4°C 27.8°F-2.3°C 82% 3.4 mph E5.5 kmh E 6.9 mph11.1 kmh 30.36 in1028.1 mb 0.00 in0.0 mm 0.00 in0.0 mm 0.00 in0.0 mm
08:40 PM 32.7°F0.4°C 27.8°F-2.3°C 82% 1.2 mph ENE1.9 kmh ENE 6.3 mph10.1 kmh 30.35 in1027.8 mb 0.00 in0.0 mm 0.00 in0.0 mm 0.00 in0.0 mm
08:50 PM 32.5°F0.3°C 27.7°F-2.4°C 82% 2.7 mph NE4.3 kmh NE 6.9 mph11.1 kmh 30.35 in1027.8 mb 0.00 in0.0 mm 0.00 in0.0 mm 0.00 in0.0 mm
09:00 PM 32.5°F0.3°C 27.7°F-2.4°C 82% 1.8 mph WNW2.9 kmh WNW 5.6 mph9.0 kmh 30.35 in1027.8 mb 0.00 in0.0 mm 0.00 in0.0 mm 0.00 in0.0 mm
09:10 PM 32.4°F0.2°C 27.5°F-2.5°C 82% 3.4 mph N5.5 kmh N 6.9 mph11.1 kmh 30.35 in1027.8 mb 0.00 in0.0 mm 0.00 in0.0 mm 0.00 in0.0 mm
09:20 PM 32.4°F0.2°C 27.5°F-2.5°C 82% 2.5 mph NNW4.0 kmh NNW 5.4 mph8.7 kmh 30.35 in1027.8 mb 0.00 in0.0 mm 0.00 in0.0 mm 0.00 in0.0 mm
09:30 PM 32.2°F0.1°C 27.3°F-2.6°C 82% 1.0 mph NNE1.6 kmh NNE 5.8 mph9.3 kmh 30.35 in1027.8 mb 0.00 in0.0 mm 0.00 in0.0 mm 0.00 in0.0 mm
09:40 PM 32.2°F0.1°C 27.3°F-2.6°C 82% 4.0 mph NW6.4 kmh NW 7.6 mph12.2 kmh 30.35 in1027.8 mb 0.00 in0.0 mm 0.00 in0.0 mm 0.00 in0.0 mm
09:50 PM 32.2°F0.1°C 27.3°F-2.6°C 82% 2.5 mph NW4.0 kmh NW 7.6 mph12.2 kmh 30.35 in1027.8 mb 0.00 in0.0 mm 0.00 in0.0 mm 0.00 in0.0 mm
10:00 PM 32.2°F0.1°C 27.3°F-2.6°C 82% 2.7 mph WNW4.3 kmh WNW 9.4 mph15.1 kmh 30.36 in1028.1 mb 0.00 in0.0 mm 0.00 in0.0 mm 0.00 in0.0 mm
10:10 PM 32.2°F0.1°C 27.3°F-2.6°C 82% 4.2 mph NW6.8 kmh NW 7.8 mph12.6 kmh 30.36 in1028.1 mb 0.00 in0.0 mm 0.00 in0.0 mm 0.00 in0.0 mm
10:20 PM 32.0°F0.0°C 26.8°F-2.9°C 81% 4.8 mph W7.7 kmh W 7.8 mph12.6 kmh 30.36 in1028.1 mb 0.00 in0.0 mm 0.00 in0.0 mm 0.00 in0.0 mm
10:30 PM 31.8°F-0.1°C 26.7°F-2.9°C 81% 4.6 mph W7.4 kmh W 8.5 mph13.7 kmh 30.36 in1028.1 mb 0.00 in0.0 mm 0.00 in0.0 mm 0.00 in0.0 mm
10:40 PM 31.8°F-0.1°C 26.7°F-2.9°C 81% 4.5 mph NNW7.2 kmh NNW 10.1 mph16.3 kmh 30.36 in1028.1 mb 0.00 in0.0 mm 0.00 in0.0 mm 0.00 in0.0 mm
10:50 PM 31.8°F-0.1°C 26.7°F-2.9°C 81% 4.2 mph NNW6.8 kmh NNW 7.2 mph11.6 kmh 30.35 in1027.8 mb 0.00 in0.0 mm 0.00 in0.0 mm 0.00 in0.0 mm
11:00 PM 31.8°F-0.1°C 26.7°F-2.9°C 81% 2.8 mph NW4.5 kmh NW 6.7 mph10.8 kmh 30.36 in1028.1 mb 0.00 in0.0 mm 0.00 in0.0 mm 0.00 in0.0 mm
11:10 PM 31.8°F-0.1°C 26.7°F-2.9°C 81% 2.1 mph N3.4 kmh N 6.7 mph10.8 kmh 30.36 in1028.1 mb 0.00 in0.0 mm 0.00 in0.0 mm 0.00 in0.0 mm
11:20 PM 31.8°F-0.1°C 26.7°F-2.9°C 81% 3.4 mph NW5.5 kmh NW 8.9 mph14.3 kmh 30.35 in1027.8 mb 0.00 in0.0 mm 0.00 in0.0 mm 0.00 in0.0 mm
11:30 PM 31.8°F-0.1°C 26.7°F-2.9°C 81% 4.2 mph NNW6.8 kmh NNW 6.7 mph10.8 kmh 30.36 in1028.1 mb 0.00 in0.0 mm 0.00 in0.0 mm 0.00 in0.0 mm
11:40 PM 31.6°F-0.2°C 26.5°F-3.1°C 81% 4.4 mph NW7.1 kmh NW 6.5 mph10.5 kmh 30.35 in1027.8 mb 0.00 in0.0 mm 0.00 in0.0 mm 0.00 in0.0 mm
11:50 PM 31.6°F-0.2°C 26.5°F-3.1°C 81% 4.7 mph NNW7.6 kmh NNW 8.1 mph13.0 kmh 30.35 in1027.8 mb 0.00 in0.0 mm 0.00 in0.0 mm 0.00 in0.0 mm